Seattle is Open!

@Adrien and I have KPDX and KSEA open respectively on the expert server. Hopefully we’ll get some radar coverage between the two. See you there!

METAR @ KSEA:
KSEA 211653Z 12004KT 10SM FEW030 SCT065 OVC095 07/02 A2934 RMK AO2 SLP943 T00670017

METAR @ KPDX:
KPDX 211653Z 12011KT 10SM BKN049 BKN070 04/02 A2935 RMK AO2 SLP938 T00390022

4 Likes

OK I will bring my VA

2 Likes

Expert server?

1 Like

Yes, expert server. :)

1 Like

Thanks everyone for showing up and following instructions. No ghosts on my part. :)

2 Likes

Only one ghost for me. Should have been more. People blowing through localizer and not following heading instructions.

KSEA approach closed. Thanks for coming if you followed instructions.

1 Like

Thank you to all pilots who followed instructions today, this makes the expert server great! :)
No ghost on my part either. Great session for me!

1 Like

This topic was automatically closed 90 days after the last reply. New replies are no longer allowed.